Time;durP1;ratioP1;P1;durP2;ratioP2;P2;SDS_P1;SDS_P2;PMS_P1;PMS_P2;Temp;Humidity;BMP_temperature;BMP_pressure;BME280_temperature;BME280_humidity;BME280_pressure;Samples;Min_cycle;Max_cycle;Signal;HPM_P1;HPM_P2
2022/07/29 00:00:06;;;;;;;2.20;1.27;;;;;;;17.93;53.24;100505.31;5119857;28;20452;-65
2022/07/29 00:02:32;;;;;;;3.00;1.40;;;;;;;17.91;53.49;100496.53;5118950;28;20434;-66
2022/07/29 00:05:02;;;;;;;7.70;1.40;;;;;;;17.88;53.54;100495.06;5119586;28;20433;-68
2022/07/29 00:07:29;;;;;;;4.10;1.77;;;;;;;17.92;53.52;100494.69;5118933;27;20477;-67
2022/07/29 00:09:56;;;;;;;6.53;1.70;;;;;;;17.90;53.71;100494.00;5119681;28;20446;-67
2022/07/29 00:12:26;;;;;;;2.37;1.10;;;;;;;17.82;53.86;100486.78;5119461;27;20470;-67
2022/07/29 00:14:52;;;;;;;3.40;1.60;;;;;;;17.70;54.17;100484.50;5119943;28;20454;-67
2022/07/29 00:17:19;;;;;;;4.70;1.60;;;;;;;17.78;55.13;100482.78;5119251;27;20496;-67
2022/07/29 00:19:46;;;;;;;3.97;1.63;;;;;;;17.73;53.85;100482.47;5119864;28;20427;-66
2022/07/29 00:22:14;;;;;;;4.67;1.47;;;;;;;17.78;54.82;100470.09;5119674;27;20472;-67
2022/07/29 00:24:41;;;;;;;2.20;1.33;;;;;;;17.81;54.27;100469.72;5119804;28;20511;-67
2022/07/29 00:27:07;;;;;;;3.03;1.43;;;;;;;17.72;54.84;100473.50;5119278;27;20481;-67
2022/07/29 00:29:34;;;;;;;2.23;1.30;;;;;;;17.79;55.09;100463.63;5119684;28;20435;-67
2022/07/29 00:32:01;;;;;;;3.47;1.17;;;;;;;17.67;54.89;100460.56;5118391;27;20526;-67
2022/07/29 00:37:12;;;;;;;3.63;1.90;;;;;;;17.78;54.61;100450.31;5118123;27;20476;-67
2022/07/29 00:39:40;;;;;;;6.20;2.10;;;;;;;17.67;54.76;100449.72;5118496;28;20450;-67
2022/07/29 00:42:07;;;;;;;3.30;1.40;;;;;;;17.75;55.00;100445.28;5118503;27;20473;-67
2022/07/29 00:44:37;;;;;;;4.53;1.80;;;;;;;17.73;55.38;100460.84;5119516;28;20427;-67
2022/07/29 00:47:04;;;;;;;4.70;1.70;;;;;;;17.59;54.94;100444.38;5117489;27;20470;-67
2022/07/29 00:49:32;;;;;;;3.43;2.00;;;;;;;17.65;55.15;100454.50;5119187;28;20430;-67
2022/07/29 00:51:58;;;;;;;4.33;1.50;;;;;;;17.69;55.77;100452.25;5118606;27;20470;-67
2022/07/29 00:54:26;;;;;;;6.60;1.43;;;;;;;17.68;55.49;100450.56;5118489;28;20500;-67
2022/07/29 00:56:54;;;;;;;3.63;1.50;;;;;;;17.67;56.38;100452.44;5118346;27;21030;-67
2022/07/29 00:59:21;;;;;;;2.50;1.67;;;;;;;17.63;56.60;100450.28;5118836;28;20414;-67
2022/07/29 01:01:48;;;;;;;2.60;1.43;;;;;;;17.53;55.96;100446.97;5121363;27;20480;-67
2022/07/29 01:04:14;;;;;;;3.93;1.40;;;;;;;17.59;55.82;100443.56;5122887;28;20419;-67
2022/07/29 01:06:41;;;;;;;3.50;1.70;;;;;;;17.63;55.87;100442.16;5122488;27;20472;-67
2022/07/29 01:09:08;;;;;;;2.53;1.30;;;;;;;17.54;56.96;100438.69;5122890;28;20418;-67
2022/07/29 01:11:36;;;;;;;3.43;1.50;;;;;;;17.53;56.83;100447.81;5122217;27;20491;-67
2022/07/29 01:14:04;;;;;;;1.97;1.47;;;;;;;17.47;57.00;100429.63;5123042;28;20542;-67
2022/07/29 01:16:32;;;;;;;3.53;1.40;;;;;;;17.43;57.72;100431.00;5121520;27;20542;-67
2022/07/29 01:19:07;;;;;;;2.43;1.70;;;;;;;17.37;56.39;100429.03;5122746;28;20451;-67
2022/07/29 01:21:52;;;;;;;1.87;1.40;;;;;;;17.40;57.25;100439.47;5122302;27;20473;-67
2022/07/29 01:24:36;;;;;;;3.00;1.40;;;;;;;17.35;57.57;100429.19;5122396;28;20493;-67
2022/07/29 01:27:12;;;;;;;2.03;1.30;;;;;;;17.31;57.46;100423.31;5121760;27;20474;-66
2022/07/29 01:29:45;;;;;;;5.77;1.67;;;;;;;17.30;58.36;100421.63;5122680;28;20430;-67
2022/07/29 01:32:13;;;;;;;2.50;1.67;;;;;;;17.28;58.17;100422.84;5122293;27;20472;-66
2022/07/29 01:34:51;;;;;;;3.80;1.23;;;;;;;17.25;57.31;100413.22;5122796;28;20470;-66
2022/07/29 01:37:20;;;;;;;6.00;1.63;;;;;;;17.19;57.78;100410.41;5120972;27;20477;-67
2022/07/29 01:39:49;;;;;;;3.43;1.27;;;;;;;17.30;57.24;100404.59;5122019;28;20479;-67
2022/07/29 01:42:22;;;;;;;3.43;1.53;;;;;;;17.31;57.48;100392.75;5121685;27;20466;-67
2022/07/29 01:44:57;;;;;;;3.93;1.60;;;;;;;17.36;57.48;100398.47;5122247;28;20437;-66
2022/07/29 01:47:34;;;;;;;7.33;1.80;;;;;;;17.31;57.93;100399.00;5120942;27;20498;-67
2022/07/29 01:50:02;;;;;;;6.60;1.93;;;;;;;17.44;57.90;100395.66;5122078;28;20422;-67
2022/07/29 01:52:33;;;;;;;2.73;2.00;;;;;;;17.49;58.64;100395.13;5121739;27;21034;-67
2022/07/29 01:55:05;;;;;;;3.33;2.20;;;;;;;17.21;60.18;100395.69;5120952;28;20485;-67
2022/07/29 01:57:33;;;;;;;2.23;1.27;;;;;;;17.23;59.16;100393.66;5121713;28;20445;-67
2022/07/29 02:00:02;;;;;;;4.63;1.43;;;;;;;17.23;58.31;100387.41;5122145;28;20508;-67
2022/07/29 02:02:30;;;;;;;2.83;1.40;;;;;;;17.45;57.01;100385.72;5121602;27;20531;-67
2022/07/29 02:04:58;;;;;;;3.10;1.40;;;;;;;17.57;56.15;100378.84;5121562;28;20484;-66
2022/07/29 02:07:26;;;;;;;4.30;1.57;;;;;;;17.62;56.44;100371.03;5121184;27;20480;-67
2022/07/29 02:09:54;;;;;;;6.83;1.87;;;;;;;17.57;57.81;100370.75;5121641;28;20454;-67
2022/07/29 02:12:21;;;;;;;4.37;2.07;;;;;;;17.48;58.55;100352.91;5120800;27;20499;-67
2022/07/29 02:14:53;;;;;;;3.50;1.63;;;;;;;17.38;59.31;100353.19;5121445;28;20462;-67
2022/07/29 02:17:23;;;;;;;3.27;1.50;;;;;;;17.33;57.96;100355.59;5120596;27;20492;-67
2022/07/29 02:19:50;;;;;;;2.10;1.37;;;;;;;17.49;57.93;100362.69;5121831;28;20427;-67
2022/07/29 02:22:19;;;;;;;4.60;1.80;;;;;;;17.44;56.46;100357.84;5121044;27;20470;-67
2022/07/29 02:24:47;;;;;;;4.83;1.80;;;;;;;17.45;57.05;100361.41;5121075;28;21399;-67
2022/07/29 02:27:15;;;;;;;3.80;1.10;;;;;;;17.31;58.04;100371.97;5121155;27;20469;-67
2022/07/29 02:29:42;;;;;;;2.23;1.73;;;;;;;17.33;57.82;100365.56;5121777;28;20423;-67
2022/07/29 02:32:10;;;;;;;2.90;1.93;;;;;;;17.31;56.58;100374.69;5120681;27;20480;-67
2022/07/29 02:34:39;;;;;;;4.60;1.57;;;;;;;17.26;56.76;100379.78;5121545;28;20494;-67
2022/07/29 02:37:06;;;;;;;4.30;1.30;;;;;;;17.31;56.70;100373.84;5120296;27;20482;-67
2022/07/29 02:39:33;;;;;;;4.33;1.47;;;;;;;17.30;55.26;100372.97;5120949;28;20422;-67
2022/07/29 02:42:03;;;;;;;3.77;1.60;;;;;;;17.25;55.84;100367.28;5120124;27;20470;-67
2022/07/29 02:44:32;;;;;;;4.83;1.93;;;;;;;17.19;56.69;100357.22;5121279;28;20422;-67
2022/07/29 02:47:04;;;;;;;2.90;1.60;;;;;;;17.09;57.72;100364.72;5119590;27;20469;-67
2022/07/29 02:49:36;;;;;;;2.47;1.87;;;;;;;16.95;59.15;100350.13;5120837;28;20431;-67
2022/07/29 02:52:08;;;;;;;2.00;1.47;;;;;;;17.06;58.54;100352.41;5120361;27;20470;-67
2022/07/29 02:54:40;;;;;;;4.10;1.53;;;;;;;17.16;57.88;100365.69;5120384;28;20470;-67
2022/07/29 02:57:12;;;;;;;2.93;1.60;;;;;;;17.24;58.03;100362.91;5120095;27;20485;-67
2022/07/29 02:59:42;;;;;;;3.07;1.50;;;;;;;17.09;57.41;100359.31;5120891;28;20546;-67
2022/07/29 03:02:09;;;;;;;4.57;2.00;;;;;;;17.04;59.27;100361.72;5120206;27;20478;-67
2022/07/29 03:04:37;;;;;;;3.80;1.63;;;;;;;16.98;59.17;100367.81;5120976;28;20418;-66
2022/07/29 03:07:05;;;;;;;3.83;1.50;;;;;;;16.92;59.80;100372.94;5119547;27;20561;-67
2022/07/29 03:09:32;;;;;;;3.67;1.77;;;;;;;16.81;59.90;100367.91;5120413;28;20418;-67
2022/07/29 03:11:59;;;;;;;3.70;1.40;;;;;;;16.80;59.78;100366.22;5120006;27;20469;-67
2022/07/29 03:14:26;;;;;;;6.67;1.73;;;;;;;16.79;59.96;100369.97;5120361;28;20470;-67
2022/07/29 03:16:53;;;;;;;3.30;1.57;;;;;;;16.73;59.68;100370.66;5119422;27;20469;-67
2022/07/29 03:19:21;;;;;;;2.93;1.57;;;;;;;16.72;60.21;100359.03;5120366;28;20462;-67
2022/07/29 03:21:48;;;;;;;4.43;1.73;;;;;;;16.70;60.61;100363.78;5119921;27;20497;-67
2022/07/29 03:24:27;;;;;;;3.10;2.20;;;;;;;16.71;60.79;100368.13;5119473;28;20464;-67
2022/07/29 03:26:55;;;;;;;2.83;1.30;;;;;;;16.69;60.41;100367.47;5119000;27;21059;-67
2022/07/29 03:29:22;;;;;;;5.87;1.77;;;;;;;16.68;60.84;100363.13;5120591;28;20448;-67
2022/07/29 03:31:49;;;;;;;5.20;1.57;;;;;;;16.57;60.68;100358.09;5119681;27;20978;-67
2022/07/29 03:34:16;;;;;;;8.40;2.00;;;;;;;16.67;61.35;100363.28;5120166;28;20494;-67
2022/07/29 03:36:43;;;;;;;2.63;1.93;;;;;;;16.67;60.97;100363.28;5119056;27;20554;-67
2022/07/29 03:39:11;;;;;;;2.63;1.50;;;;;;;16.69;62.14;100362.09;5120116;28;20456;-67
2022/07/29 03:41:41;;;;;;;3.20;1.90;;;;;;;16.67;62.03;100369.53;5119233;27;20522;-67
2022/07/29 03:44:08;;;;;;;9.00;1.77;;;;;;;16.67;61.85;100376.78;5119988;28;20460;-67
2022/07/29 03:46:36;;;;;;;3.77;1.77;;;;;;;16.64;62.10;100371.75;5118310;27;20519;-67
2022/07/29 03:49:05;;;;;;;3.20;1.60;;;;;;;16.62;62.45;100368.38;5120218;28;20461;-67
2022/07/29 03:51:31;;;;;;;2.20;1.43;;;;;;;16.57;62.09;100366.19;5119294;27;20557;-67
2022/07/29 03:53:58;;;;;;;3.47;1.43;;;;;;;16.51;61.86;100361.53;5119858;28;20442;-67
2022/07/29 03:56:25;;;;;;;5.43;1.50;;;;;;;16.50;61.73;100363.38;5118930;27;20538;-67
2022/07/29 03:58:54;;;;;;;4.50;1.93;;;;;;;16.49;61.85;100363.53;5120055;28;20452;-67
2022/07/29 04:01:21;;;;;;;2.70;1.73;;;;;;;16.50;63.00;100366.06;5118876;27;20483;-67
2022/07/29 04:03:48;;;;;;;3.83;1.77;;;;;;;16.50;62.87;100359.84;5119900;28;20525;-67
2022/07/29 04:06:15;;;;;;;3.07;1.53;;;;;;;16.53;62.97;100354.91;5119040;27;20477;-67
2022/07/29 04:08:42;;;;;;;3.53;1.80;;;;;;;16.50;62.71;100366.06;5119830;28;20433;-67
2022/07/29 04:11:09;;;;;;;2.33;1.70;;;;;;;16.50;62.78;100365.22;5118503;27;20458;-67
2022/07/29 04:13:36;;;;;;;3.50;1.90;;;;;;;16.47;63.75;100369.09;5119723;28;20434;-67
2022/07/29 04:16:05;;;;;;;2.67;1.73;;;;;;;16.50;63.22;100366.06;5118885;27;20515;-67
2022/07/29 04:18:32;;;;;;;4.57;2.17;;;;;;;16.45;63.38;100360.34;5119076;28;20429;-67
2022/07/29 04:21:00;;;;;;;5.10;1.83;;;;;;;16.45;63.38;100359.53;5118804;27;21086;-67
2022/07/29 04:23:27;;;;;;;3.33;1.67;;;;;;;16.45;64.03;100360.34;5119100;28;20473;-67
2022/07/29 04:25:54;;;;;;;1.77;1.50;;;;;;;16.43;64.69;100356.16;5118506;27;20497;-67
2022/07/29 04:28:21;;;;;;;5.00;1.87;;;;;;;16.44;64.66;100357.81;5119322;28;20516;-67
2022/07/29 04:30:48;;;;;;;1.80;1.40;;;;;;;16.43;64.48;100348.06;5119020;27;20478;-67
2022/07/29 04:33:17;;;;;;;3.40;1.93;;;;;;;16.49;64.60;100361.69;5119064;28;20461;-67
2022/07/29 04:35:44;;;;;;;6.03;2.57;;;;;;;16.33;64.14;100365.28;5118486;27;20784;-67
2022/07/29 04:38:11;;;;;;;3.30;2.33;;;;;;;16.26;65.13;100363.47;5119389;28;20481;-67
2022/07/29 04:40:38;;;;;;;6.53;2.20;;;;;;;16.33;64.46;100362.59;5118418;27;20521;-67
2022/07/29 04:43:04;;;;;;;2.50;1.70;;;;;;;16.44;64.44;100369.50;5119265;28;20418;-67
2022/07/29 04:45:31;;;;;;;2.20;1.63;;;;;;;16.54;64.11;100371.94;5118369;27;20462;-67
2022/07/29 04:47:58;;;;;;;5.53;1.93;;;;;;;16.58;64.16;100367.91;5118669;28;20427;-67
2022/07/29 04:50:27;;;;;;;5.40;2.07;;;;;;;16.64;63.19;100363.63;5118274;27;20430;-67
2022/07/29 04:52:53;;;;;;;5.83;1.80;;;;;;;16.69;63.89;100366.66;5119254;28;20427;-67
2022/07/29 04:55:20;;;;;;;6.00;2.30;;;;;;;16.85;62.63;100366.56;5117942;27;20489;-67
2022/07/29 04:57:47;;;;;;;3.17;2.00;;;;;;;16.92;62.28;100370.22;5119102;28;20472;-67
2022/07/29 05:00:15;;;;;;;5.73;1.90;;;;;;;16.97;62.64;100349.97;5118417;27;20427;-67
2022/07/29 05:02:41;;;;;;;2.70;2.23;;;;;;;17.05;61.96;100360.72;5119050;28;20886;-67
2022/07/29 05:05:09;;;;;;;5.07;2.10;;;;;;;17.33;62.34;100360.16;5118434;27;20833;-67
2022/07/29 05:07:37;;;;;;;6.37;2.13;;;;;;;17.51;61.36;100360.66;5119031;28;20458;-67
2022/07/29 05:10:05;;;;;;;4.73;2.00;;;;;;;17.68;60.88;100358.63;5118605;28;20457;-67
2022/07/29 05:12:31;;;;;;;5.13;3.00;;;;;;;18.18;59.48;100365.22;5118250;28;20434;-67
2022/07/29 05:14:58;;;;;;;4.27;2.53;;;;;;;18.82;57.97;100363.72;5104194;28;20475;-67
2022/07/29 05:17:25;;;;;;;5.50;1.73;;;;;;;19.12;55.54;100369.88;5094172;28;20471;-67
2022/07/29 05:19:52;;;;;;;4.97;2.67;;;;;;;19.25;55.92;100368.31;5098010;28;20427;-67
2022/07/29 05:22:19;;;;;;;4.80;1.37;;;;;;;19.19;54.98;100376.19;5078681;28;20494;-66
2022/07/29 05:24:48;;;;;;;3.30;1.70;;;;;;;18.69;55.47;100374.38;5076056;28;20681;-65
2022/07/29 05:27:15;;;;;;;5.97;2.00;;;;;;;18.98;56.37;100373.47;5077112;28;21088;-66
2022/07/29 05:29:42;;;;;;;3.83;1.60;;;;;;;18.91;55.75;100369.88;5077366;28;20436;-65
2022/07/29 05:32:08;;;;;;;4.30;1.63;;;;;;;18.96;55.35;100364.72;5075516;28;20475;-66
2022/07/29 05:34:35;;;;;;;2.63;1.70;;;;;;;18.62;55.71;100363.47;5077374;28;20453;-66
2022/07/29 05:37:02;;;;;;;4.53;1.87;;;;;;;18.91;55.90;100359.84;5076514;28;20483;-66
2022/07/29 05:39:29;;;;;;;4.33;2.17;;;;;;;18.81;55.19;100367.44;5076474;28;20432;-67
2022/07/29 05:41:57;;;;;;;4.33;1.70;;;;;;;19.15;54.52;100360.53;5076541;28;20482;-67
2022/07/29 05:44:24;;;;;;;2.50;1.53;;;;;;;19.44;53.10;100350.53;5077456;28;20439;-67
2022/07/29 05:46:51;;;;;;;4.40;1.77;;;;;;;19.50;52.98;100350.59;5076095;28;20499;-67
2022/07/29 05:49:17;;;;;;;3.97;1.63;;;;;;;19.46;52.75;100351.16;5081419;28;20435;-67
2022/07/29 05:51:44;;;;;;;4.77;1.70;;;;;;;19.44;53.58;100350.53;5080266;28;20483;-66
2022/07/29 05:54:11;;;;;;;10.73;2.63;;;;;;;19.51;53.51;100360.41;5080072;28;20448;-67
2022/07/29 05:56:37;;;;;;;4.70;1.50;;;;;;;19.59;53.43;100358.59;5079741;28;20540;-67
2022/07/29 05:59:06;;;;;;;5.60;1.80;;;;;;;19.64;54.64;100361.53;5080554;28;20450;-67
2022/07/29 06:01:32;;;;;;;6.43;1.97;;;;;;;19.63;53.96;100362.56;5079211;28;20523;-68
2022/07/29 06:03:59;;;;;;;6.53;1.90;;;;;;;19.50;54.85;100355.19;5081148;28;20436;-68
2022/07/29 06:06:26;;;;;;;3.70;2.00;;;;;;;19.63;54.97;100366.13;5080008;28;20471;-67
2022/07/29 06:08:53;;;;;;;4.93;1.90;;;;;;;19.64;54.57;100361.53;5079913;28;20424;-68
2022/07/29 06:11:20;;;;;;;4.37;2.20;;;;;;;19.66;54.22;100368.44;5079830;28;20490;-66
2022/07/29 06:13:47;;;;;;;3.80;1.77;;;;;;;19.69;54.31;100367.22;5080059;28;20439;-67
2022/07/29 06:16:15;;;;;;;3.70;1.80;;;;;;;19.70;54.17;100374.31;5078936;28;20484;-68
2022/07/29 06:18:42;;;;;;;4.50;2.00;;;;;;;19.77;54.42;100374.38;5079810;28;20459;-68
2022/07/29 06:21:10;;;;;;;7.23;2.10;;;;;;;19.98;54.02;100373.47;5080124;28;20488;-67
2022/07/29 06:23:38;;;;;;;8.20;1.90;;;;;;;20.39;52.72;100381.63;5079376;28;20428;-67
2022/07/29 06:26:05;;;;;;;7.30;1.80;;;;;;;20.64;51.66;100378.41;5079271;28;20474;-68
2022/07/29 06:28:32;;;;;;;3.03;1.50;;;;;;;20.52;50.66;100378.16;5080571;28;20432;-67
2022/07/29 06:30:59;;;;;;;6.60;2.10;;;;;;;19.85;51.58;100371.53;5079079;28;20494;-67
2022/07/29 06:33:27;;;;;;;5.23;1.60;;;;;;;20.08;51.78;100376.69;5080535;28;20424;-67
2022/07/29 06:35:54;;;;;;;3.60;1.63;;;;;;;20.39;51.33;100370.78;5079813;28;20538;-68
2022/07/29 06:38:21;;;;;;;3.33;1.63;;;;;;;20.56;50.16;100376.69;5079506;28;20488;-67
2022/07/29 06:41:01;;;;;;;3.40;1.57;;;;;;;20.79;51.39;100378.28;5079808;28;20476;-68
2022/07/29 06:43:31;;;;;;;3.90;1.93;;;;;;;20.57;51.09;100369.38;5080488;28;20458;-67
2022/07/29 06:45:59;;;;;;;6.33;1.80;;;;;;;20.82;51.03;100375.97;5078613;28;20464;-67
2022/07/29 06:48:30;;;;;;;2.47;1.60;;;;;;;20.51;50.89;100371.03;5080685;28;20424;-68
2022/07/29 06:50:57;;;;;;;7.07;1.93;;;;;;;21.13;50.21;100374.59;5080055;28;20921;-67
2022/07/29 06:53:24;;;;;;;7.10;2.30;;;;;;;21.34;49.42;100375.44;5079924;28;20452;-67
2022/07/29 06:55:51;;;;;;;4.13;1.50;;;;;;;21.96;48.05;100373.31;5079133;28;20475;-67
2022/07/29 06:58:20;;;;;;;4.07;1.90;;;;;;;21.30;47.75;100379.59;5080337;28;20421;-68
2022/07/29 07:00:47;;;;;;;5.60;1.90;;;;;;;21.89;46.97;100380.66;5078660;28;21066;-68
2022/07/29 07:03:14;;;;;;;3.37;1.93;;;;;;;22.47;46.06;100379.91;5080362;28;20429;-67
2022/07/29 07:05:42;;;;;;;3.57;1.60;;;;;;;22.42;46.08;100383.28;5079717;28;20467;-67
2022/07/29 07:08:09;;;;;;;5.20;2.07;;;;;;;22.43;46.58;100384.09;5079595;28;20421;-67
2022/07/29 07:10:36;;;;;;;3.63;1.67;;;;;;;22.53;47.52;100385.34;5079490;28;20464;-68
2022/07/29 07:13:03;;;;;;;6.03;1.80;;;;;;;22.56;46.14;100384.06;5079780;28;20467;-67
2022/07/29 07:15:30;;;;;;;3.97;1.80;;;;;;;22.52;45.76;100386.38;5078366;28;20468;-67
2022/07/29 07:17:57;;;;;;;9.23;2.00;;;;;;;22.63;45.35;100389.50;5079491;28;20482;-68
2022/07/29 07:20:24;;;;;;;5.63;1.60;;;;;;;22.58;45.37;100392.03;5079946;28;20436;-68
2022/07/29 07:22:52;;;;;;;3.70;1.60;;;;;;;22.63;45.20;100392.22;5078873;28;20478;-68
2022/07/29 07:25:19;;;;;;;5.10;1.73;;;;;;;22.79;44.20;100391.69;5079092;28;20448;-68
2022/07/29 07:27:46;;;;;;;4.53;1.40;;;;;;;22.28;44.97;100384.38;5079700;28;21047;-67
2022/07/29 07:30:14;;;;;;;5.60;1.90;;;;;;;22.96;44.21;100383.03;5075142;28;20423;-68
2022/07/29 07:32:41;;;;;;;3.77;1.80;;;;;;;24.48;41.14;100381.88;5072954;28;20833;-68
2022/07/29 07:35:09;;;;;;;4.97;1.43;;;;;;;24.21;41.92;100385.78;5078313;28;20444;-67
2022/07/29 07:37:36;;;;;;;3.60;1.50;;;;;;;24.16;41.84;100382.88;5078359;28;20570;-66
2022/07/29 07:40:06;;;;;;;3.30;1.50;;;;;;;24.26;42.25;100382.38;5076550;28;20523;-68
2022/07/29 07:42:32;;;;;;;4.93;1.60;;;;;;;23.47;43.93;100376.59;5078657;28;20482;-68
2022/07/29 07:44:59;;;;;;;4.00;1.57;;;;;;;22.86;44.54;100388.94;5077877;28;20889;-67
2022/07/29 07:47:26;;;;;;;7.57;1.97;;;;;;;23.19;43.88;100382.47;5077549;28;20472;-68
2022/07/29 07:49:53;;;;;;;6.40;2.07;;;;;;;22.90;44.88;100390.19;5079037;28;20435;-68
2022/07/29 07:52:21;;;;;;;5.00;1.67;;;;;;;23.18;44.81;100386.28;5077674;28;20533;-68
2022/07/29 07:54:48;;;;;;;2.40;1.40;;;;;;;22.96;43.06;100389.31;5078326;28;20424;-68
2022/07/29 07:57:17;;;;;;;6.80;1.50;;;;;;;23.25;41.83;100390.63;5077926;28;20924;-68
2022/07/29 07:59:44;;;;;;;4.43;1.70;;;;;;;22.80;44.18;100387.94;5078335;28;20432;-67
2022/07/29 08:02:11;;;;;;;7.30;2.00;;;;;;;22.67;44.83;100386.13;5078419;28;20482;-67
2022/07/29 08:04:40;;;;;;;6.43;1.80;;;;;;;22.49;44.57;100394.16;5077943;28;20424;-68
2022/07/29 08:07:07;;;;;;;4.00;1.73;;;;;;;23.49;42.63;100399.06;5077233;28;20474;-67
2022/07/29 08:09:34;;;;;;;3.53;1.20;;;;;;;23.94;42.13;100393.44;5078594;28;21219;-67
2022/07/29 08:12:03;;;;;;;4.87;1.40;;;;;;;24.42;40.96;100395.41;5077342;28;20521;-68
2022/07/29 08:14:31;;;;;;;7.47;2.00;;;;;;;25.26;37.48;100392.03;5077796;28;20424;-67
2022/07/29 08:16:58;;;;;;;4.83;1.70;;;;;;;25.09;39.54;100391.00;5076922;28;21341;-68
2022/07/29 08:19:25;;;;;;;4.50;1.83;;;;;;;25.05;39.38;100393.38;5078560;28;20509;-68
2022/07/29 08:21:53;;;;;;;4.07;1.70;;;;;;;24.22;41.14;100386.63;5076645;28;20476;-67
2022/07/29 08:27:04;;;;;;;7.40;2.43;;;;;;;24.47;40.04;100393.91;5077186;28;21015;-67
2022/07/29 08:29:32;;;;;;;2.97;1.73;;;;;;;26.15;37.05;100388.41;5077369;28;20493;-67
2022/07/29 08:31:59;;;;;;;4.83;1.47;;;;;;;26.60;35.53;100401.41;5077542;28;20545;-67
2022/07/29 08:34:25;;;;;;;3.27;1.50;;;;;;;26.88;35.29;100394.31;5078113;28;20443;-67
2022/07/29 08:36:52;;;;;;;4.63;1.80;;;;;;;26.80;36.71;100391.94;5076082;28;20519;-67
2022/07/29 08:39:19;;;;;;;4.90;1.87;;;;;;;29.01;30.50;100396.13;5078336;28;20432;-67
2022/07/29 08:41:47;;;;;;;3.90;1.50;;;;;;;29.14;30.69;100394.03;5077268;28;20529;-68
2022/07/29 08:44:14;;;;;;;5.30;1.40;;;;;;;30.20;29.78;100400.66;5076410;28;20460;-68
2022/07/29 08:46:42;;;;;;;6.40;1.57;;;;;;;28.23;32.28;100401.78;5076636;28;20503;-67
2022/07/29 08:49:08;;;;;;;8.20;1.60;;;;;;;29.64;30.82;100388.16;5078135;28;20436;-67
2022/07/29 08:51:37;;;;;;;5.97;1.40;;;;;;;27.56;30.90;100397.16;5075888;28;20498;-67
2022/07/29 08:54:04;;;;;;;2.53;1.70;;;;;;;27.65;31.63;100398.41;5077856;28;20428;-67
2022/07/29 08:56:31;;;;;;;1.80;1.40;;;;;;;26.01;34.04;100390.56;5076591;28;20521;-67
2022/07/29 08:58:59;;;;;;;4.13;1.77;;;;;;;26.08;33.83;100387.72;5077097;28;20432;-67
2022/07/29 09:01:29;;;;;;;3.63;2.00;;;;;;;26.16;34.60;100394.72;5077268;28;20537;-67
2022/07/29 09:03:58;;;;;;;6.70;1.70;;;;;;;27.66;33.04;100391.03;5076750;28;20949;-66
2022/07/29 09:06:27;;;;;;;5.63;1.57;;;;;;;27.20;31.94;100394.63;5076199;28;20480;-66
2022/07/29 09:08:55;;;;;;;5.37;2.00;;;;;;;26.25;34.16;100390.53;5077981;28;20527;-66
2022/07/29 09:11:22;;;;;;;3.87;1.60;;;;;;;26.53;34.24;100389.75;5076785;28;20479;-66
2022/07/29 09:13:49;;;;;;;7.63;1.83;;;;;;;28.24;30.43;100378.66;5077132;28;20428;-66
2022/07/29 09:16:16;;;;;;;4.70;1.53;;;;;;;29.51;29.38;100376.75;5077376;28;20515;-66
2022/07/29 09:18:44;;;;;;;3.80;1.40;;;;;;;29.09;27.07;100373.59;5077195;28;20420;-66
2022/07/29 09:24:07;;;;;;;4.13;1.17;;;;;;;29.12;27.14;100377.78;5081068;28;20419;-66
2022/07/29 09:26:37;;;;;;;3.80;1.70;;;;;;;29.74;27.63;100370.00;5080341;28;20542;-66
2022/07/29 09:29:10;;;;;;;3.47;1.67;;;;;;;29.82;26.73;100370.38;5079874;28;20424;-66
2022/07/29 09:31:40;;;;;;;5.90;1.60;;;;;;;29.49;26.41;100366.00;5080583;28;20508;-66
2022/07/29 09:34:07;;;;;;;3.70;1.47;;;;;;;28.95;27.05;100374.31;5081580;28;20443;-66
2022/07/29 09:36:41;;;;;;;4.50;1.60;;;;;;;30.00;26.99;100360.84;5077991;28;20519;-66
2022/07/29 09:39:08;;;;;;;5.47;1.50;;;;;;;31.05;25.17;100367.31;5081147;28;20491;-67
2022/07/29 09:41:49;;;;;;;3.73;1.50;;;;;;;30.98;25.19;100367.56;5080371;28;20467;-67
2022/07/29 09:44:16;;;;;;;2.73;1.80;;;;;;;30.39;25.46;100354.16;5080006;28;20431;-66
2022/07/29 09:46:56;;;;;;;3.40;1.30;;;;;;;30.72;25.42;100361.16;5079503;28;21053;-66
2022/07/29 09:49:23;;;;;;;3.97;2.07;;;;;;;29.71;26.60;100367.81;5081119;28;20420;-66
2022/07/29 09:52:01;;;;;;;2.20;1.50;;;;;;;29.43;27.10;100364.31;5078864;28;20904;-66
2022/07/29 09:54:29;;;;;;;4.97;2.17;;;;;;;28.41;27.82;100362.13;5080808;28;20436;-66
2022/07/29 09:56:56;;;;;;;3.33;1.90;;;;;;;27.64;29.18;100366.53;5079933;28;20475;-66
2022/07/29 09:59:26;;;;;;;4.20;2.27;;;;;;;27.61;29.24;100369.78;5079704;28;20417;-66
2022/07/29 10:01:53;;;;;;;4.63;1.80;;;;;;;27.49;29.84;100363.56;5080264;28;20477;-67
2022/07/29 10:04:20;;;;;;;4.30;2.10;;;;;;;26.25;31.44;100360.41;5079838;28;20482;-67
2022/07/29 10:06:57;;;;;;;3.67;2.17;;;;;;;26.15;32.16;100357.44;5079420;28;21181;-68
2022/07/29 10:09:27;;;;;;;5.30;2.10;;;;;;;25.89;33.31;100354.94;5080980;28;20492;-66
2022/07/29 10:12:08;;;;;;;5.10;2.00;;;;;;;25.82;33.69;100356.97;5080191;28;20466;-66
2022/07/29 10:14:36;;;;;;;2.57;1.50;;;;;;;25.80;33.47;100361.03;5080561;28;20495;-66
2022/07/29 10:17:04;;;;;;;4.07;1.83;;;;;;;25.82;33.01;100356.13;5079502;28;20965;-67
2022/07/29 10:19:31;;;;;;;5.53;2.10;;;;;;;25.81;32.74;100352.53;5080242;28;20428;-66
2022/07/29 10:21:59;;;;;;;5.40;2.00;;;;;;;26.46;32.46;100345.19;5079924;28;20509;-67
2022/07/29 10:24:29;;;;;;;3.00;1.63;;;;;;;27.93;30.97;100349.94;5080678;28;20421;-67
2022/07/29 10:26:57;;;;;;;4.60;2.10;;;;;;;29.00;28.76;100355.09;5078653;28;20479;-67
2022/07/29 10:29:24;;;;;;;4.97;2.20;;;;;;;28.61;29.77;100347.81;5080656;28;20454;-67
2022/07/29 10:32:09;;;;;;;5.50;2.60;;;;;;;27.88;30.29;100347.09;5079758;28;20475;-67
2022/07/29 10:34:50;;;;;;;2.53;1.47;;;;;;;27.53;31.49;100343.59;5079368;28;20428;-67
2022/07/29 10:37:22;;;;;;;4.33;2.37;;;;;;;27.85;29.95;100345.69;5078510;28;20492;-67
2022/07/29 10:39:56;;;;;;;5.60;2.47;;;;;;;28.09;30.17;100340.84;5080257;28;20452;-67
2022/07/29 10:42:24;;;;;;;6.97;3.20;;;;;;;28.89;28.57;100343.97;5078148;28;20460;-67
2022/07/29 10:44:52;;;;;;;5.37;3.23;;;;;;;28.40;29.25;100340.38;5080320;28;20428;-66
2022/07/29 10:47:23;;;;;;;6.60;3.30;;;;;;;28.26;29.26;100338.03;5078436;28;21084;-67
2022/07/29 10:49:58;;;;;;;6.00;3.30;;;;;;;28.11;28.91;100343.34;5078735;28;20793;-67
2022/07/29 10:52:27;;;;;;;7.40;3.00;;;;;;;27.84;29.12;100346.78;5079288;28;20479;-67
2022/07/29 10:54:58;;;;;;;4.40;2.80;;;;;;;27.20;29.12;100339.75;5079812;28;20432;-67
2022/07/29 10:57:27;;;;;;;4.17;2.80;;;;;;;28.08;29.18;100347.41;5077321;28;20518;-66
2022/07/29 11:00:32;;;;;;;4.93;2.90;;;;;;;27.47;30.45;100347.31;5079904;28;20432;-67
2022/07/29 11:02:59;;;;;;;5.77;2.80;;;;;;;28.70;29.18;100339.94;5079335;28;20446;-67
2022/07/29 11:05:29;;;;;;;4.93;2.53;;;;;;;28.70;28.09;100340.75;5077723;28;21688;-67
2022/07/29 11:08:19;;;;;;;3.00;2.70;;;;;;;28.66;27.65;100333.25;5079500;28;20458;-66
2022/07/29 11:10:48;;;;;;;3.13;2.60;;;;;;;30.26;26.44;100333.41;5078692;28;20471;-67
2022/07/29 11:13:50;;;;;;;3.93;2.97;;;;;;;31.16;25.32;100335.00;5078642;28;20450;-67
2022/07/29 11:16:17;;;;;;;4.20;2.73;;;;;;;31.27;24.86;100342.19;5078176;28;20489;-67
2022/07/29 11:19:21;;;;;;;6.30;2.60;;;;;;;30.02;25.74;100333.84;5078062;28;20488;-67
2022/07/29 11:21:49;;;;;;;6.60;2.60;;;;;;;28.60;27.52;100334.31;5067000;28;20499;-67
2022/07/29 11:24:18;;;;;;;5.57;2.70;;;;;;;28.64;28.75;100333.53;5079450;28;20813;-67
2022/07/29 11:26:47;;;;;;;13.37;3.20;;;;;;;28.97;28.54;100331.66;5076587;28;20537;-67
2022/07/29 11:29:21;;;;;;;5.27;3.10;;;;;;;30.47;27.67;100326.06;5078947;28;20607;-67
2022/07/29 11:31:53;;;;;;;5.07;2.60;;;;;;;30.75;26.39;100330.25;5078331;28;20475;-67
2022/07/29 11:34:25;;;;;;;5.77;2.57;;;;;;;30.71;26.48;100334.66;5077847;28;20428;-67
2022/07/29 11:37:18;;;;;;;4.10;2.57;;;;;;;30.08;26.77;100331.94;5077586;28;20537;-67
2022/07/29 11:39:46;;;;;;;5.87;3.07;;;;;;;28.66;27.83;100336.88;5079159;28;20520;-67